Terminal Aerodrome Forecast
Issued by NWS Tuscon, AZ

Home | Current Version | Previous Version | Text Only | Print | Product List | Glossary On
Versions: 1 2 3 4 5 6 7 8 9 10 11 12 13
537
FTUS45 KTWC 290535
TAFDUG
TAF
KDUG 290535Z 2906/3006 25017G27KT P6SM FEW060 SCT100
     FM290700 26013KT P6SM SCT100
     FM291000 VRB04KT P6SM SCT060 SCT100
     FM291900 29015G23KT P6SM SCT080=

USA.gov is the U.S. government's official web portal to all federal, state and local government web resources and services.